TimeEDT,TemperatureF,Dew PointF,Humidity,Sea Level PressureIn,VisibilityMPH,Wind Direction,Wind SpeedMPH,Gust SpeedMPH,PrecipitationIn,Events,Conditions,WindDirDegrees,DateUTC
12:00 AM,59.0,53.6,82,30.34,10.0,Calm,Calm,-,N/A,,Unknown,0,2009-05-14 04:00:00
12:20 AM,57.2,53.6,88,30.33,10.0,SE,3.5,-,N/A,,Unknown,140,2009-05-14 04:20:00
12:40 AM,57.2,53.6,88,30.33,10.0,Calm,Calm,-,N/A,,Unknown,0,2009-05-14 04:40:00
1:00 AM,57.2,53.6,88,30.33,10.0,Calm,Calm,-,N/A,,Clear,0,2009-05-14 05:00:00
1:20 AM,55.4,53.6,94,30.33,10.0,Calm,Calm,-,N/A,,Scattered Clouds,0,2009-05-14 05:20:00
1:40 AM,57.2,55.4,94,30.33,10.0,Calm,Calm,-,N/A,,Unknown,0,2009-05-14 05:40:00
2:00 AM,57.2,55.4,94,30.32,10.0,Calm,Calm,-,N/A,,Unknown,0,2009-05-14 06:00:00
2:20 AM,55.4,53.6,94,30.31,10.0,Calm,Calm,-,N/A,,Unknown,0,2009-05-14 06:20:00
2:40 AM,57.2,55.4,94,30.30,10.0,Calm,Calm,-,N/A,,Unknown,0,2009-05-14 06:40:00
3:00 AM,57.2,55.4,94,30.29,10.0,Calm,Calm,-,N/A,,Clear,0,2009-05-14 07:00:00
3:20 AM,59.0,55.4,88,30.28,10.0,SSE,4.6,-,N/A,,Clear,150,2009-05-14 07:20:00
3:40 AM,59.0,57.2,94,30.26,10.0,SSE,5.8,-,N/A,,Clear,150,2009-05-14 07:40:00
4:00 AM,60.8,57.2,88,30.26,10.0,SSE,5.8,-,N/A,,Clear,150,2009-05-14 08:00:00
4:20 AM,60.8,57.2,88,30.25,10.0,SE,5.8,-,N/A,,Clear,140,2009-05-14 08:20:00
4:40 AM,60.8,57.2,88,30.25,10.0,SE,4.6,-,N/A,,Clear,140,2009-05-14 08:40:00
5:00 AM,60.8,57.2,88,30.25,10.0,SE,4.6,-,N/A,,Clear,140,2009-05-14 09:00:00
5:20 AM,60.8,57.2,88,30.25,10.0,SE,4.6,-,N/A,,Clear,140,2009-05-14 09:20:00
5:40 AM,60.8,57.2,88,30.26,10.0,SE,3.5,-,N/A,,Clear,140,2009-05-14 09:40:00
6:00 AM,60.8,57.2,88,30.27,10.0,SSE,3.5,-,N/A,,Clear,150,2009-05-14 10:00:00
6:20 AM,60.8,57.2,88,30.28,10.0,SE,5.8,-,N/A,,Clear,140,2009-05-14 10:20:00
6:40 AM,60.8,57.2,88,30.28,10.0,SE,5.8,-,N/A,,Clear,140,2009-05-14 10:40:00
7:20 AM,64.4,59.0,83,30.29,10.0,SE,8.1,-,N/A,,Unknown,130,2009-05-14 11:20:00
7:40 AM,64.4,59.0,83,30.29,10.0,SSE,6.9,-,N/A,,Unknown,150,2009-05-14 11:40:00
8:00 AM,66.2,60.8,83,30.30,10.0,SE,8.1,-,N/A,,Clear,140,2009-05-14 12:00:00
8:20 AM,69.8,60.8,73,30.30,10.0,SSE,8.1,-,N/A,,Clear,150,2009-05-14 12:20:00
8:40 AM,71.6,60.8,69,30.31,10.0,SSE,8.1,-,N/A,,Clear,150,2009-05-14 12:40:00
9:00 AM,71.6,60.8,69,30.32,10.0,SSE,12.7,16.1,N/A,,Scattered Clouds,150,2009-05-14 13:00:00
9:20 AM,73.4,60.8,65,30.33,10.0,SSE,15.0,-,N/A,,Mostly Cloudy,160,2009-05-14 13:20:00
10:00 AM,75.2,62.6,65,30.32,10.0,South,16.1,20.7,N/A,,Mostly Cloudy,180,2009-05-14 14:00:00
10:20 AM,75.2,62.6,65,30.33,10.0,South,16.1,19.6,N/A,,Mostly Cloudy,170,2009-05-14 14:20:00
10:40 AM,75.2,62.6,65,30.33,10.0,South,11.5,-,N/A,,Mostly Cloudy,180,2009-05-14 14:40:00
11:00 AM,75.2,62.6,65,30.33,10.0,South,12.7,18.4,N/A,,Mostly Cloudy,180,2009-05-14 15:00:00
11:20 AM,78.8,64.4,61,30.32,10.0,South,13.8,19.6,N/A,,Scattered Clouds,190,2009-05-14 15:20:00
11:40 AM,77.0,64.4,65,30.32,10.0,SSE,13.8,18.4,N/A,,Scattered Clouds,160,2009-05-14 15:40:00
12:00 PM,75.2,62.6,65,30.31,10.0,SSE,11.5,-,N/A,,Mostly Cloudy,160,2009-05-14 16:00:00
12:20 PM,75.2,64.4,69,30.30,10.0,South,11.5,-,N/A,,Overcast,170,2009-05-14 16:20:00
12:40 PM,78.8,64.4,61,30.30,10.0,SSE,13.8,19.6,N/A,,Mostly Cloudy,160,2009-05-14 16:40:00
1:00 PM,77.0,64.4,65,30.29,10.0,South,12.7,-,N/A,,Mostly Cloudy,170,2009-05-14 17:00:00
1:20 PM,78.8,64.4,61,30.28,10.0,SSE,13.8,-,N/A,,Scattered Clouds,160,2009-05-14 17:20:00
1:40 PM,78.8,64.4,61,30.27,10.0,SSE,15.0,19.6,N/A,,Mostly Cloudy,160,2009-05-14 17:40:00
2:00 PM,78.8,64.4,61,30.27,10.0,South,13.8,18.4,N/A,,Overcast,170,2009-05-14 18:00:00
2:20 PM,80.6,64.4,58,30.26,10.0,South,12.7,18.4,N/A,,Mostly Cloudy,180,2009-05-14 18:20:00
2:40 PM,78.8,64.4,61,30.24,10.0,South,12.7,20.7,N/A,,Mostly Cloudy,170,2009-05-14 18:40:00
3:00 PM,80.6,64.4,58,30.22,10.0,South,13.8,19.6,N/A,,Scattered Clouds,170,2009-05-14 19:00:00
3:20 PM,80.6,64.4,58,30.21,10.0,South,17.3,23.0,N/A,,Clear,180,2009-05-14 19:20:00
3:40 PM,80.6,64.4,58,30.21,10.0,South,15.0,21.9,N/A,,Scattered Clouds,180,2009-05-14 19:40:00
4:00 PM,78.8,64.4,61,30.20,10.0,South,16.1,20.7,N/A,,Mostly Cloudy,180,2009-05-14 20:00:00
4:20 PM,78.8,64.4,61,30.20,10.0,South,13.8,23.0,N/A,,Mostly Cloudy,170,2009-05-14 20:20:00
4:40 PM,78.8,64.4,61,30.19,10.0,South,16.1,20.7,N/A,,Mostly Cloudy,170,2009-05-14 20:40:00
5:00 PM,78.8,64.4,61,30.19,10.0,South,15.0,-,N/A,,Mostly Cloudy,170,2009-05-14 21:00:00
5:20 PM,78.8,64.4,61,30.20,10.0,South,16.1,19.6,N/A,,Mostly Cloudy,170,2009-05-14 21:20:00
5:40 PM,78.8,64.4,61,30.20,10.0,South,15.0,20.7,N/A,,Scattered Clouds,170,2009-05-14 21:40:00
6:00 PM,78.8,64.4,61,30.19,10.0,South,15.0,19.6,N/A,,Scattered Clouds,170,2009-05-14 22:00:00
6:20 PM,78.8,64.4,61,30.19,10.0,South,13.8,18.4,N/A,,Scattered Clouds,170,2009-05-14 22:20:00
6:40 PM,77.0,64.4,65,30.18,10.0,South,16.1,23.0,N/A,,Clear,170,2009-05-14 22:40:00
7:00 PM,75.2,64.4,69,30.19,10.0,SSE,15.0,-,N/A,,Scattered Clouds,160,2009-05-14 23:00:00
7:20 PM,75.2,64.4,69,30.19,10.0,South,9.2,-,N/A,,Mostly Cloudy,170,2009-05-14 23:20:00
7:40 PM,75.2,64.4,69,30.20,10.0,South,11.5,-,N/A,,Scattered Clouds,170,2009-05-14 23:40:00
8:00 PM,73.4,66.2,78,30.20,10.0,South,10.4,-,N/A,,Clear,170,2009-05-15 00:00:00
8:20 PM,73.4,66.2,78,30.21,10.0,South,11.5,-,N/A,,Mostly Cloudy,180,2009-05-15 00:20:00
9:00 PM,71.6,66.2,83,30.21,10.0,South,9.2,-,N/A,,Scattered Clouds,170,2009-05-15 01:00:00
9:20 PM,71.6,66.2,83,30.21,10.0,SSE,8.1,-,N/A,,Clear,160,2009-05-15 01:20:00
9:40 PM,71.6,66.2,83,30.22,10.0,South,4.6,-,N/A,,Scattered Clouds,170,2009-05-15 01:40:00
10:00 PM,71.6,66.2,83,30.22,10.0,SSE,4.6,-,N/A,,Mostly Cloudy,160,2009-05-15 02:00:00
10:20 PM,71.6,66.2,83,30.23,10.0,South,3.5,-,N/A,,Overcast,170,2009-05-15 02:20:00
10:40 PM,71.6,66.2,83,30.22,10.0,SSE,6.9,-,N/A,,Overcast,160,2009-05-15 02:40:00
11:00 PM,71.6,66.2,83,30.23,10.0,Calm,Calm,-,N/A,,Overcast,0,2009-05-15 03:00:00
11:20 PM,71.6,66.2,83,30.22,10.0,SSE,5.8,-,N/A,,Overcast,160,2009-05-15 03:20:00
11:40 PM,71.6,66.2,83,30.21,10.0,South,8.1,-,N/A,,Overcast,170,2009-05-15 03:40:00